Time;durP1;ratioP1;P1;durP2;ratioP2;P2;SDS_P1;SDS_P2;PMS_P1;PMS_P2;Temp;Humidity;BMP_temperature;BMP_pressure;BME280_temperature;BME280_humidity;BME280_pressure;Samples;Min_cycle;Max_cycle;Signal;HPM_P1;HPM_P2
2021/12/14 00:00:21;;;;;;;17.00;11.57;;;;;;;1.69;88.81;100960.61;1649599;85;21078;-62
2021/12/14 00:02:50;;;;;;;17.90;12.83;;;;;;;1.71;88.95;100963.98;1666658;85;21162;-61
2021/12/14 00:05:20;;;;;;;16.53;12.47;;;;;;;1.76;88.92;100966.25;1667031;85;21020;-59
2021/12/14 00:07:47;;;;;;;19.07;12.63;;;;;;;1.74;88.76;100973.42;1664712;85;21044;-61
2021/12/14 00:10:44;;;;;;;17.80;12.67;;;;;;;1.76;88.93;100974.14;1668562;85;21035;-61
2021/12/14 00:13:01;;;;;;;17.97;13.10;;;;;;;1.79;89.09;100973.92;1677593;84;21542;-60
2021/12/14 00:15:24;;;;;;;18.60;12.57;;;;;;;1.77;89.04;100972.34;1677561;85;21690;-62
2021/12/14 00:17:57;;;;;;;17.97;13.03;;;;;;;1.74;89.05;100974.25;1672752;85;21053;-62
2021/12/14 00:20:38;;;;;;;18.87;11.57;;;;;;;1.74;88.66;100979.98;1681953;85;21052;-61
2021/12/14 00:25:46;;;;;;;17.73;12.85;;;;;;;1.68;88.91;100981.29;1696136;83;21059;-60
2021/12/14 00:28:21;;;;;;;18.70;13.60;;;;;;;1.69;88.88;100977.69;1699272;83;21035;-61
2021/12/14 00:30:51;;;;;;;19.67;11.53;;;;;;;1.67;88.94;100982.71;1691204;83;21587;-61
2021/12/14 00:33:24;;;;;;;19.70;12.53;;;;;;;1.66;88.97;100977.11;1692305;83;21485;-60
2021/12/14 00:35:51;;;;;;;19.97;12.70;;;;;;;1.65;88.91;100981.98;1692112;83;21523;-63
2021/12/14 00:38:22;;;;;;;18.20;13.33;;;;;;;1.60;89.22;100977.09;1693370;83;21025;-60
2021/12/14 00:40:53;;;;;;;18.60;12.90;;;;;;;1.60;89.03;100976.23;1698999;83;21014;-60
2021/12/14 00:43:22;;;;;;;22.67;13.83;;;;;;;1.59;89.29;100976.72;1700593;83;21589;-61
2021/12/14 00:45:48;;;;;;;16.73;12.77;;;;;;;1.60;89.28;100966.58;1688650;83;21482;-60
2021/12/14 00:48:16;;;;;;;;;;;;;;;1.62;89.39;100972.55;1693947;83;21072;-61
2021/12/14 00:50:48;;;;;;;22.35;14.10;;;;;;;1.64;89.51;100969.33;1692181;83;20138;-61
2021/12/14 00:53:14;;;;;;;17.83;12.00;;;;;;;1.62;89.46;100967.30;1696739;83;21156;-61
2021/12/14 00:55:45;;;;;;;18.77;13.90;;;;;;;1.69;89.74;100969.80;1696260;83;21145;-61
2021/12/14 00:58:14;;;;;;;16.73;12.37;;;;;;;1.72;89.35;100974.84;1692446;83;20997;-61
2021/12/14 01:00:46;;;;;;;22.97;14.23;;;;;;;1.70;89.38;100974.61;1696347;83;21103;-61
2021/12/14 01:03:13;;;;;;;21.63;13.20;;;;;;;1.71;89.31;100976.27;1685821;83;21107;-60
2021/12/14 01:05:44;;;;;;;20.95;14.20;;;;;;;1.75;89.01;100978.56;1695671;83;21044;-60
2021/12/14 01:08:15;;;;;;;19.93;12.97;;;;;;;1.75;88.84;100973.77;1694593;83;21027;-60
2021/12/14 01:10:53;;;;;;;18.60;13.73;;;;;;;1.72;88.71;100973.53;1696280;83;21543;-60
2021/12/14 01:13:25;;;;;;;18.10;13.13;;;;;;;1.68;88.66;100979.14;1701041;83;21098;-60
2021/12/14 01:16:17;;;;;;;18.33;13.23;;;;;;;1.63;88.77;100979.47;1688041;83;21051;-62
2021/12/14 01:18:49;;;;;;;19.17;13.43;;;;;;;1.62;88.99;100976.95;1689064;83;21043;-60
2021/12/14 01:24:05;;;;;;;17.60;14.00;;;;;;;1.67;89.45;100983.54;1698418;81;21016;-60
2021/12/14 01:26:32;;;;;;;18.03;12.33;;;;;;;1.78;89.31;100987.17;1696101;83;21005;-61
2021/12/14 01:29:01;;;;;;;18.43;13.60;;;;;;;1.83;89.15;100987.64;1702382;83;21079;-61
2021/12/14 01:31:38;;;;;;;18.00;13.13;;;;;;;1.77;88.75;100988.94;1692876;83;21681;-61
2021/12/14 01:34:08;;;;;;;18.97;13.27;;;;;;;1.67;88.67;100987.48;1697572;83;21164;-60
2021/12/14 01:36:42;;;;;;;20.10;12.93;;;;;;;1.67;88.61;100990.11;1692050;83;21020;-62
2021/12/14 01:42:02;;;;;;;18.80;12.53;;;;;;;1.61;88.84;100989.27;1690781;83;21064;-60
2021/12/14 01:44:38;;;;;;;20.70;13.53;;;;;;;1.64;88.97;100982.47;1700743;83;20990;-60
2021/12/14 01:47:14;;;;;;;15.10;11.75;;;;;;;1.71;89.23;100983.70;1689431;83;21042;-59
2021/12/14 01:49:50;;;;;;;16.13;12.40;;;;;;;1.76;89.19;100987.28;1695708;83;21014;-60
2021/12/14 01:52:26;;;;;;;18.37;12.93;;;;;;;1.73;89.28;100989.67;1703717;83;21080;-61
2021/12/14 01:54:58;;;;;;;16.27;12.23;;;;;;;1.66;89.06;100985.83;1697523;83;21615;-60
2021/12/14 01:57:28;;;;;;;14.67;11.80;;;;;;;1.68;88.99;100992.28;1695137;83;21037;-61
2021/12/14 01:59:58;;;;;;;13.27;10.07;;;;;;;1.74;88.91;100992.64;1672239;83;20993;-60
2021/12/14 02:02:40;;;;;;;13.67;10.67;;;;;;;1.76;88.82;100995.16;1684875;84;21111;-60
2021/12/14 02:05:06;;;;;;;10.40;8.93;;;;;;;1.78;88.60;100993.74;1670075;85;21521;-61
2021/12/14 02:07:36;;;;;;;16.83;11.70;;;;;;;1.77;88.64;100988.11;1689652;84;21038;-58
2021/12/14 02:10:11;;;;;;;16.63;10.63;;;;;;;1.71;88.52;100988.95;1681463;85;20998;-59
2021/12/14 02:12:42;;;;;;;13.93;10.83;;;;;;;1.61;88.90;100989.27;1667098;85;21148;-61
2021/12/14 02:15:17;;;;;;;14.77;10.20;;;;;;;1.63;88.93;100987.84;1676439;83;21058;-59
2021/12/14 02:17:45;;;;;;;16.10;10.57;;;;;;;1.63;88.77;100982.58;1651549;85;21058;-60
2021/12/14 02:20:19;;;;;;;16.60;11.30;;;;;;;1.60;88.62;100987.61;1689790;85;21589;-60
2021/12/14 02:22:47;;;;;;;15.00;12.00;;;;;;;1.55;88.72;100985.30;1679057;84;21055;-60
2021/12/14 02:25:14;;;;;;;16.60;12.30;;;;;;;1.50;88.96;100980.03;1685896;83;21573;-59
2021/12/14 02:27:45;;;;;;;13.27;10.67;;;;;;;1.49;89.29;100983.63;1677496;85;21057;-58
2021/12/14 02:30:17;;;;;;;16.63;12.07;;;;;;;1.55;89.45;100983.16;1675391;85;21018;-59
2021/12/14 02:32:45;;;;;;;14.57;10.97;;;;;;;1.61;89.66;100982.69;1682706;85;21382;-60
2021/12/14 02:35:16;;;;;;;21.07;13.83;;;;;;;1.64;89.76;100982.47;1684260;83;21038;-60
2021/12/14 02:37:54;;;;;;;18.30;12.27;;;;;;;1.66;89.69;100981.05;1689767;83;21042;-59
2021/12/14 02:41:08;;;;;;;15.47;11.03;;;;;;;1.69;89.58;100976.37;1630735;87;21166;-59
2021/12/14 02:43:09;;;;;;;15.43;11.33;;;;;;;1.73;89.08;100977.84;1611703;88;21019;-59
2021/12/14 02:45:36;;;;;;;17.32;12.05;;;;;;;1.77;88.65;100979.73;1644923;83;21082;-59
2021/12/14 02:48:10;;;;;;;13.45;10.65;;;;;;;1.77;88.38;100974.48;1673528;85;21068;-59
2021/12/14 02:50:37;;;;;;;16.30;12.10;;;;;;;1.78;88.49;100981.43;1689688;85;21031;-60
2021/12/14 02:53:04;;;;;;;17.00;13.63;;;;;;;1.76;88.26;100980.71;1668236;83;21028;-60
2021/12/14 02:55:32;;;;;;;15.97;12.03;;;;;;;1.65;88.33;100980.67;1647402;85;21645;-60
2021/12/14 02:58:07;;;;;;;17.63;11.57;;;;;;;1.58;88.44;100977.66;1647593;86;21074;-59
2021/12/14 03:00:48;;;;;;;18.00;11.63;;;;;;;1.61;88.63;100985.32;1666423;85;21073;-61
2021/12/14 03:03:16;;;;;;;18.73;13.30;;;;;;;1.66;88.90;100985.83;1664794;85;21090;-59
2021/12/14 03:05:48;;;;;;;21.53;13.37;;;;;;;1.55;88.81;100959.02;1665793;85;21514;-61
2021/12/14 03:08:26;;;;;;;15.57;12.33;;;;;;;1.74;88.86;100984.77;1639159;86;21168;-61
2021/12/14 03:11:10;;;;;;;16.40;12.33;;;;;;;1.69;88.76;100984.26;1664326;85;21086;-59
2021/12/14 03:13:34;;;;;;;19.07;12.70;;;;;;;1.57;88.89;100985.19;1632291;86;21606;-65
2021/12/14 03:16:06;;;;;;;15.97;11.93;;;;;;;1.56;89.20;100991.39;1644041;86;21072;-59
2021/12/14 03:18:38;;;;;;;13.20;11.07;;;;;;;1.56;89.31;100995.33;1665720;85;21090;-61
2021/12/14 03:21:12;;;;;;;14.37;10.77;;;;;;;1.54;89.10;100984.09;1664704;85;21101;-61
2021/12/14 03:23:44;;;;;;;13.63;10.27;;;;;;;1.52;89.24;100992.56;1669019;83;21057;-58
2021/12/14 03:26:15;;;;;;;12.83;11.03;;;;;;;1.51;89.33;100990.42;1720487;82;21050;-60
2021/12/14 03:28:46;;;;;;;16.20;11.63;;;;;;;1.49;89.27;100985.77;1718005;82;21082;-61
2021/12/14 03:31:38;;;;;;;18.03;12.50;;;;;;;1.41;89.43;100989.89;1693637;83;21031;-62
2021/12/14 03:34:20;;;;;;;16.07;11.37;;;;;;;1.33;89.58;100986.52;1691622;84;21477;-60
2021/12/14 03:36:55;;;;;;;14.43;11.50;;;;;;;1.35;89.65;100992.02;1672917;84;21077;-60
2021/12/14 03:39:33;;;;;;;13.03;10.40;;;;;;;1.32;89.59;100988.32;1664586;85;21014;-60
2021/12/14 03:42:26;;;;;;;14.00;10.67;;;;;;;1.28;89.50;100988.64;1663915;84;21078;-59
2021/12/14 03:44:56;;;;;;;17.47;11.60;;;;;;;1.24;89.77;100994.59;1664307;84;22627;-59
2021/12/14 03:47:33;;;;;;;14.50;11.10;;;;;;;1.21;89.92;100992.69;1672094;85;21034;-60
2021/12/14 03:50:08;;;;;;;15.37;11.60;;;;;;;1.18;90.20;100993.73;1670156;85;20978;-60
2021/12/14 03:52:40;;;;;;;15.93;10.50;;;;;;;1.17;90.30;100992.06;1686258;85;21021;-61
2021/12/14 03:55:19;;;;;;;13.20;9.43;;;;;;;1.15;90.46;100993.97;1658194;86;21050;-60
2021/12/14 03:57:46;;;;;;;15.10;10.50;;;;;;;1.14;90.67;101002.78;1650330;85;21005;-59
2021/12/14 04:00:19;;;;;;;14.73;10.30;;;;;;;1.15;90.63;100995.28;1661299;85;21027;-61
2021/12/14 04:02:53;;;;;;;12.67;10.20;;;;;;;1.16;90.65;101000.88;1648490;85;21097;-58
2021/12/14 04:05:22;;;;;;;13.17;9.90;;;;;;;1.14;90.55;101000.98;1646404;85;21048;-61
2021/12/14 04:07:49;;;;;;;16.43;11.23;;;;;;;1.16;90.76;101001.71;1640444;86;21065;-60
2021/12/14 04:10:29;;;;;;;16.33;11.73;;;;;;;1.18;90.72;101008.17;1649698;86;21142;-67
2021/12/14 04:12:58;;;;;;;15.57;9.90;;;;;;;1.22;90.90;101006.99;1621212;87;21041;-60
2021/12/14 04:15:27;;;;;;;14.60;11.03;;;;;;;1.19;90.70;101007.23;1659754;85;21114;-60
2021/12/14 04:17:54;;;;;;;14.20;11.30;;;;;;;1.21;90.48;101017.16;1676880;85;21067;-60
2021/12/14 04:20:29;;;;;;;15.00;10.77;;;;;;;1.20;90.54;101014.63;1659061;85;21545;-62
2021/12/14 04:22:58;;;;;;;13.87;9.87;;;;;;;1.23;90.54;101012.63;1626159;86;21039;-60
2021/12/14 04:25:29;;;;;;;15.17;10.43;;;;;;;1.24;90.29;101016.91;1670511;85;20974;-60
2021/12/14 04:27:57;;;;;;;14.30;11.10;;;;;;;1.26;90.26;101014.18;1650512;85;21106;-61
2021/12/14 04:30:27;;;;;;;16.33;10.60;;;;;;;1.24;90.23;101015.59;1666130;86;22164;-62
2021/12/14 04:32:58;;;;;;;14.90;11.23;;;;;;;1.29;90.42;101017.42;1638826;86;21077;-61
2021/12/14 04:35:25;;;;;;;15.00;11.33;;;;;;;1.31;90.50;101024.72;1627015;86;21124;-60
2021/12/14 04:37:58;;;;;;;13.37;11.00;;;;;;;1.25;90.61;101021.23;1671585;84;21618;-60
2021/12/14 04:54:03;;;;;;;18.30;11.77;;;;;;;1.19;90.82;101030.88;1612100;87;21656;-63
2021/12/14 04:56:34;;;;;;;14.60;11.53;;;;;;;1.18;90.69;101031.80;1634840;85;21124;-60
2021/12/14 04:59:23;;;;;;;17.27;12.87;;;;;;;1.20;90.93;101031.22;1648399;87;21077;-58
2021/12/14 05:01:55;;;;;;;15.57;10.50;;;;;;;1.18;91.01;101032.29;1636594;85;21062;-60
2021/12/14 05:04:26;;;;;;;16.23;11.10;;;;;;;1.16;90.79;101042.41;1648415;85;21609;-60
2021/12/14 05:07:15;;;;;;;14.43;10.90;;;;;;;1.17;90.69;101041.96;1659588;85;21102;-60
2021/12/14 05:09:30;;;;;;;15.93;10.37;;;;;;;1.11;90.72;101047.63;1659880;85;21620;-60
2021/12/14 05:12:12;;;;;;;15.80;11.87;;;;;;;1.12;90.80;101045.38;1654289;85;21550;-62
2021/12/14 05:14:47;;;;;;;13.33;10.20;;;;;;;1.11;90.87;101046.31;1638807;85;21044;-61
2021/12/14 05:17:22;;;;;;;16.90;11.50;;;;;;;1.14;90.93;101046.94;1649886;85;21061;-59
2021/12/14 05:19:52;;;;;;;14.80;10.67;;;;;;;1.13;90.96;101053.16;1652930;85;21103;-65
2021/12/14 05:22:28;;;;;;;14.87;10.10;;;;;;;1.13;90.92;101050.53;1697769;83;21046;-61
2021/12/14 05:25:02;;;;;;;14.83;11.65;;;;;;;1.15;91.11;101055.20;1697287;83;21032;-62
2021/12/14 05:27:34;;;;;;;15.37;12.60;;;;;;;1.17;91.07;101059.03;1692073;83;21108;-60
2021/12/14 05:30:15;;;;;;;16.33;12.77;;;;;;;1.11;91.34;101062.07;1692450;83;21020;-60
2021/12/14 05:32:46;;;;;;;13.87;10.93;;;;;;;1.13;91.45;101063.66;1692103;83;21055;-59
2021/12/14 05:35:18;;;;;;;13.90;10.43;;;;;;;1.23;91.29;101064.32;1670608;83;21165;-60
2021/12/14 05:37:50;;;;;;;15.23;11.77;;;;;;;1.30;91.20;101070.78;1693082;83;21047;-63
2021/12/14 05:40:36;;;;;;;18.70;10.87;;;;;;;1.35;90.69;101065.56;1694503;83;21063;-62
2021/12/14 05:43:07;;;;;;;15.33;12.27;;;;;;;1.34;90.56;101069.16;1694600;83;21028;-60
2021/12/14 05:45:46;;;;;;;20.00;12.23;;;;;;;1.36;90.77;101069.05;1679135;83;21062;-60
2021/12/14 05:48:25;;;;;;;13.93;10.80;;;;;;;1.33;90.97;101064.01;1687656;83;21609;-58
2021/12/14 05:50:57;;;;;;;14.27;11.83;;;;;;;1.29;90.41;101067.33;1682887;83;21044;-60
2021/12/14 05:53:28;;;;;;;15.23;10.90;;;;;;;1.32;90.21;101064.49;1692233;83;21183;-59
2021/12/14 05:55:57;;;;;;;17.50;11.97;;;;;;;1.35;90.11;101074.76;1681432;83;21048;-59
2021/12/14 05:58:25;;;;;;;15.23;11.30;;;;;;;1.30;89.67;101072.96;1697054;83;21008;-60
2021/12/14 06:00:57;;;;;;;15.10;11.30;;;;;;;1.26;89.80;101075.90;1691840;83;21051;-58
2021/12/14 06:03:32;;;;;;;15.27;11.37;;;;;;;1.24;90.05;101071.23;1690360;83;21075;-59
2021/12/14 06:06:00;;;;;;;17.07;12.17;;;;;;;1.26;90.48;101072.82;1691592;83;21028;-60
2021/12/14 06:08:32;;;;;;;21.17;13.70;;;;;;;1.23;90.62;101071.72;1669777;84;21053;-59
2021/12/14 06:11:02;;;;;;;19.13;13.93;;;;;;;1.19;90.52;101069.40;1690379;83;21043;-59
2021/12/14 06:13:41;;;;;;;18.93;14.10;;;;;;;1.19;90.31;101068.09;1703008;83;21513;-59
2021/12/14 06:16:26;;;;;;;21.30;13.73;;;;;;;1.16;90.23;101072.61;1711571;83;21035;-60
2021/12/14 06:18:53;;;;;;;21.87;13.83;;;;;;;1.14;90.51;101071.89;1702627;83;21147;-61
2021/12/14 06:21:32;;;;;;;17.20;12.63;;;;;;;1.16;90.64;101073.09;1692336;83;21040;-60
2021/12/14 06:24:05;;;;;;;19.30;13.17;;;;;;;1.23;90.71;101069.58;1693091;82;20988;-60
2021/12/14 06:26:45;;;;;;;21.07;14.67;;;;;;;1.23;90.61;101074.34;1696971;83;21235;-62
2021/12/14 06:29:18;;;;;;;22.10;14.90;;;;;;;1.16;90.46;101077.03;1694209;83;20996;-61
2021/12/14 06:31:46;;;;;;;19.50;14.17;;;;;;;1.16;90.46;101079.66;1694800;83;21071;-62
2021/12/14 06:34:27;;;;;;;19.67;14.80;;;;;;;1.18;90.30;101080.39;1682531;83;22154;-61
2021/12/14 06:37:42;;;;;;;17.10;12.77;;;;;;;1.19;90.26;101086.47;1683017;83;21063;-60
2021/12/14 06:40:06;;;;;;;19.40;13.53;;;;;;;1.20;90.35;101092.10;1681761;83;21027;-59
2021/12/14 06:42:41;;;;;;;16.83;13.97;;;;;;;1.23;90.51;101084.02;1683410;83;21530;-60
2021/12/14 06:45:22;;;;;;;20.83;16.13;;;;;;;1.28;90.63;101093.70;1680586;83;21052;-59
2021/12/14 06:47:54;;;;;;;19.23;14.57;;;;;;;1.27;90.77;101092.04;1686081;83;21150;-61
2021/12/14 06:50:25;;;;;;;23.87;15.47;;;;;;;1.27;90.54;101095.49;1689717;83;21047;-58
2021/12/14 06:53:03;;;;;;;21.30;15.50;;;;;;;1.28;90.36;101086.68;1707265;83;21561;-60
2021/12/14 06:55:40;;;;;;;18.00;14.43;;;;;;;1.38;90.02;101086.85;1689383;83;21117;-61
2021/12/14 06:58:25;;;;;;;21.73;15.05;;;;;;;1.44;89.69;101084.26;1690065;83;21038;-61
2021/12/14 07:01:12;;;;;;;19.48;13.62;;;;;;;1.44;89.45;101084.26;1678153;83;21130;-61
2021/12/14 07:03:47;;;;;;;21.85;15.93;;;;;;;1.42;89.61;101086.98;1685720;83;21604;-61
2021/12/14 07:06:28;;;;;;;24.53;16.03;;;;;;;1.38;89.98;101089.96;1676658;83;21099;-60
2021/12/14 07:11:09;;;;;;;21.23;14.43;;;;;;;1.42;90.03;101095.36;1817198;77;23409;-60
2021/12/14 07:13:41;;;;;;;16.23;11.37;;;;;;;1.44;89.55;101094.77;1709809;82;21040;-66
2021/12/14 07:16:27;;;;;;;21.00;15.57;;;;;;;1.48;89.29;101092.27;1725516;82;21545;-62
2021/12/14 07:18:57;;;;;;;19.07;14.60;;;;;;;1.46;89.08;101096.80;1716033;82;21058;-61
2021/12/14 07:21:41;;;;;;;19.73;13.37;;;;;;;1.43;89.20;101098.33;1713507;82;21001;-60
2021/12/14 07:24:30;;;;;;;20.20;15.50;;;;;;;1.42;89.32;101104.06;1731530;81;20997;-62
2021/12/14 07:27:19;;;;;;;24.00;17.20;;;;;;;1.40;89.43;101099.88;1729883;81;21048;-62
2021/12/14 07:29:48;;;;;;;23.60;15.40;;;;;;;1.34;89.74;101095.42;1732901;81;21029;-60
2021/12/14 07:32:15;;;;;;;20.63;14.67;;;;;;;1.37;89.85;101094.36;1733151;81;21599;-62
2021/12/14 07:34:41;;;;;;;19.93;15.67;;;;;;;1.44;89.30;101096.08;1719378;81;21587;-62
2021/12/14 07:37:08;;;;;;;19.87;15.38;;;;;;;1.48;88.95;101100.16;1648567;83;20988;-62
2021/12/14 07:39:35;;;;;;;16.93;13.50;;;;;;;1.45;89.02;101091.17;1652132;84;21028;-62
2021/12/14 07:42:01;;;;;;;20.10;14.18;;;;;;;1.44;89.01;101091.66;1672756;84;20978;-61
2021/12/14 07:44:37;;;;;;;19.30;14.97;;;;;;;1.43;89.16;101099.64;1669782;84;21049;-63
2021/12/14 07:47:11;;;;;;;16.90;13.93;;;;;;;1.40;89.14;101096.77;1685587;84;21062;-60
2021/12/14 07:49:54;;;;;;;20.77;14.40;;;;;;;1.36;89.28;101095.32;1681355;84;21070;-60
2021/12/14 07:52:25;;;;;;;17.53;13.60;;;;;;;1.30;89.85;101100.54;1681262;84;21101;-61
2021/12/14 07:55:00;;;;;;;16.97;13.10;;;;;;;1.38;90.08;101104.41;1690023;84;21545;-61
2021/12/14 07:57:30;;;;;;;17.97;14.10;;;;;;;1.45;89.49;101106.94;1674142;82;21044;-61
2021/12/14 08:00:02;;;;;;;16.97;13.70;;;;;;;1.44;89.21;101103.96;1675310;84;20981;-61
2021/12/14 08:02:38;;;;;;;17.50;13.77;;;;;;;1.41;89.29;101106.31;1676171;84;21536;-62
2021/12/14 08:05:19;;;;;;;17.73;12.33;;;;;;;1.36;89.43;101103.20;1671071;84;21108;-61
2021/12/14 08:07:56;;;;;;;13.97;11.30;;;;;;;1.34;89.52;101101.16;1664018;84;21285;-61
2021/12/14 08:10:30;;;;;;;18.37;13.37;;;;;;;1.35;89.73;101101.02;1667494;84;21059;-68
2021/12/14 08:13:08;;;;;;;16.23;13.03;;;;;;;1.33;89.76;101095.53;1673518;81;21519;-60
2021/12/14 08:15:41;;;;;;;17.63;12.97;;;;;;;1.28;89.88;101097.64;1667796;84;21012;-61
2021/12/14 08:18:17;;;;;;;13.60;10.93;;;;;;;1.28;90.08;101095.01;1673259;84;21072;-61
2021/12/14 08:20:53;;;;;;;16.50;12.50;;;;;;;1.38;90.00;101096.53;1669531;84;21201;-62
2021/12/14 08:23:54;;;;;;;16.87;13.13;;;;;;;1.44;89.47;101093.45;1667873;83;21046;-61
2021/12/14 08:26:29;;;;;;;16.93;11.87;;;;;;;1.43;89.19;101087.82;1675487;84;20976;-59
2021/12/14 08:29:07;;;;;;;16.30;12.60;;;;;;;1.46;89.56;101088.92;1664004;84;21099;-61
2021/12/14 08:31:48;;;;;;;15.73;12.70;;;;;;;1.52;89.81;101088.47;1681189;84;21034;-60
2021/12/14 08:34:19;;;;;;;18.63;13.33;;;;;;;1.50;89.21;101083.80;1677115;83;21042;-62
2021/12/14 08:36:51;;;;;;;16.47;13.10;;;;;;;1.45;88.79;101091.17;1686038;83;21049;-60
2021/12/14 08:39:23;;;;;;;19.43;14.87;;;;;;;1.45;88.74;101092.03;1683408;83;20998;-62
2021/12/14 08:41:58;;;;;;;16.93;13.17;;;;;;;1.47;88.87;101092.76;1679982;83;20991;-60
2021/12/14 08:44:35;;;;;;;20.47;13.57;;;;;;;1.55;88.95;101090.89;1680503;83;21030;-61
2021/12/14 08:46:56;;;;;;;19.23;14.80;;;;;;;1.62;89.11;101096.07;1678450;84;21007;-61
2021/12/14 08:49:22;;;;;;;21.05;16.02;;;;;;;1.60;88.81;101094.48;1684189;83;21022;-64
2021/12/14 08:51:50;;;;;;;18.65;14.63;;;;;;;1.54;88.78;101098.39;1687207;84;21097;-72
2021/12/14 08:54:26;;;;;;;18.30;14.03;;;;;;;1.58;88.91;101089.81;1686751;83;21010;-61
2021/12/14 08:56:58;;;;;;;19.30;13.53;;;;;;;1.61;88.64;101091.75;1647373;83;21085;-61
2021/12/14 08:59:26;;;;;;;23.10;17.40;;;;;;;1.69;88.65;101095.95;1644571;86;21076;-61
2021/12/14 09:01:54;;;;;;;21.13;15.97;;;;;;;1.68;88.20;101094.78;1620479;86;21078;-59
2021/12/14 09:04:31;;;;;;;18.73;13.70;;;;;;;1.58;88.21;101089.33;1626034;87;21082;-60
2021/12/14 09:07:15;;;;;;;21.37;14.80;;;;;;;1.56;88.48;101080.73;1613909;87;21131;-62
2021/12/14 09:09:43;;;;;;;20.80;13.43;;;;;;;1.61;88.27;101081.72;1644877;86;21112;-61
2021/12/14 09:12:24;;;;;;;23.37;15.90;;;;;;;1.63;88.23;101082.45;1623433;86;21533;-60
2021/12/14 09:14:53;;;;;;;17.53;14.73;;;;;;;1.62;88.13;101083.38;1635476;87;21037;-62
2021/12/14 09:17:22;;;;;;;21.17;15.40;;;;;;;1.60;88.18;101086.15;1636722;86;21366;-60
2021/12/14 09:19:54;;;;;;;21.33;15.70;;;;;;;1.53;88.43;101087.54;1627860;86;21029;-61
2021/12/14 09:22:29;;;;;;;23.67;16.40;;;;;;;1.49;88.96;101086.92;1626927;84;21075;-59
2021/12/14 09:24:56;;;;;;;21.77;15.47;;;;;;;1.54;88.87;101090.51;1593294;88;21138;-59
2021/12/14 09:27:28;;;;;;;17.33;13.20;;;;;;;1.56;88.75;101095.18;1588618;88;21093;-58
2021/12/14 09:29:55;;;;;;;22.87;16.37;;;;;;;1.55;88.67;101086.95;1594627;88;21090;-58
2021/12/14 09:32:27;;;;;;;26.37;17.27;;;;;;;1.55;88.75;101085.15;1596393;88;21098;-60
2021/12/14 09:34:53;;;;;;;18.90;14.97;;;;;;;1.59;88.87;101087.08;1620446;86;21060;-59
2021/12/14 09:37:23;;;;;;;23.30;17.37;;;;;;;1.60;88.91;101091.86;1651789;85;21101;-58
2021/12/14 09:39:55;;;;;;;26.07;18.40;;;;;;;1.58;88.95;101085.88;1639277;86;21046;-58
2021/12/14 09:42:29;;;;;;;23.27;18.17;;;;;;;1.53;89.19;101086.22;1644753;86;21046;-59
2021/12/14 09:45:00;;;;;;;24.17;18.53;;;;;;;1.50;89.35;101079.87;1672037;85;21053;-58
2021/12/14 09:47:31;;;;;;;21.13;16.10;;;;;;;1.55;89.44;101075.95;1652068;86;21043;-58
2021/12/14 09:50:01;;;;;;;19.50;15.20;;;;;;;1.61;89.46;101065.95;1674656;85;21101;-60
2021/12/14 09:52:32;;;;;;;21.57;14.30;;;;;;;1.63;89.33;101067.98;1650579;85;21076;-58
2021/12/14 09:55:04;;;;;;;18.93;14.57;;;;;;;1.65;89.39;101064.77;1649988;85;21117;-58
2021/12/14 09:57:43;;;;;;;24.50;15.20;;;;;;;1.66;89.10;101065.15;1649833;85;21061;-60
2021/12/14 10:00:21;;;;;;;18.92;15.00;;;;;;;1.62;89.11;101068.47;1652254;85;21052;-58
2021/12/14 10:02:51;;;;;;;16.73;14.33;;;;;;;1.58;89.17;101068.80;1648992;85;21076;-58
2021/12/14 10:05:22;;;;;;;17.80;13.53;;;;;;;1.55;89.18;101071.19;1613988;87;21650;-58
2021/12/14 10:07:49;;;;;;;15.63;13.17;;;;;;;1.58;89.23;101061.74;1626345;87;21740;-58
2021/12/14 10:10:19;;;;;;;19.50;13.50;;;;;;;1.63;88.99;101057.00;1624121;87;21069;-58
2021/12/14 10:12:51;;;;;;;16.33;13.70;;;;;;;1.66;88.90;101055.47;1650278;86;21098;-60
2021/12/14 10:15:34;;;;;;;18.50;13.97;;;;;;;1.71;89.03;101056.42;1648426;86;21608;-60
2021/12/14 10:18:15;;;;;;;16.90;13.57;;;;;;;1.77;88.90;101057.28;1642455;86;21644;-58
2021/12/14 10:20:53;;;;;;;23.53;16.03;;;;;;;1.77;88.72;101053.83;1642751;86;21084;-59
2021/12/14 10:23:21;;;;;;;15.83;13.37;;;;;;;1.79;88.49;101054.09;1670516;84;20981;-58
2021/12/14 10:25:49;;;;;;;20.67;15.73;;;;;;;1.85;88.23;101047.05;1645659;86;21042;-59
2021/12/14 10:28:17;;;;;;;15.20;13.03;;;;;;;1.90;88.32;101049.33;1643088;86;21075;-58
2021/12/14 10:30:53;;;;;;;16.27;13.27;;;;;;;1.97;88.31;101046.61;1670001;84;21049;-59
2021/12/14 10:33:17;;;;;;;18.43;13.77;;;;;;;1.97;87.48;101043.97;1632946;86;21079;-59
2021/12/14 10:35:50;;;;;;;15.83;12.80;;;;;;;1.89;87.56;101042.41;1591406;88;21616;-59
2021/12/14 10:38:27;;;;;;;17.47;12.33;;;;;;;1.87;87.68;101044.31;1589375;88;21128;-61
2021/12/14 10:43:47;;;;;;;16.63;12.43;;;;;;;1.92;87.47;101044.34;1587765;88;21534;-59
2021/12/14 10:46:30;;;;;;;15.63;11.57;;;;;;;1.93;87.00;101040.73;1596339;88;21542;-58
2021/12/14 10:48:57;;;;;;;16.93;14.03;;;;;;;1.90;87.02;101038.81;1641394;86;21103;-61
2021/12/14 10:51:29;;;;;;;15.07;12.37;;;;;;;1.80;86.73;101047.03;1646770;86;20996;-61
2021/12/14 10:54:00;;;;;;;17.80;12.80;;;;;;;1.69;87.40;101039.45;1642386;86;21538;-62
2021/12/14 10:56:31;;;;;;;15.20;12.07;;;;;;;1.71;87.60;101049.86;1660113;84;21290;-65
2021/12/14 10:59:03;;;;;;;13.33;11.33;;;;;;;1.74;87.57;101042.59;1681130;84;21046;-62
2021/12/14 11:01:34;;;;;;;13.47;11.80;;;;;;;1.81;87.75;101044.75;1668584;84;21047;-62
2021/12/14 11:04:05;;;;;;;14.30;11.93;;;;;;;1.85;87.27;101037.02;1646724;86;21014;-61
2021/12/14 11:06:36;;;;;;;15.87;10.77;;;;;;;1.78;87.01;101047.14;1629541;86;21127;-61
2021/12/14 11:11:51;;;;;;;11.87;9.57;;;;;;;1.78;86.69;101032.69;1665854;84;21601;-63
2021/12/14 11:14:25;;;;;;;11.37;10.17;;;;;;;1.84;86.78;101034.84;1715494;82;21539;-61
2021/12/14 11:19:46;;;;;;;13.50;11.23;;;;;;;1.93;86.29;101038.59;1717211;82;21072;-71
2021/12/14 11:22:24;;;;;;;13.83;10.77;;;;;;;1.82;86.37;101033.30;1720510;81;21036;-61
2021/12/14 11:24:58;;;;;;;12.53;9.93;;;;;;;1.84;86.66;101035.33;1721935;82;20994;-60
2021/12/14 11:27:35;;;;;;;12.00;10.00;;;;;;;1.90;86.73;101036.18;1723399;82;21064;-63
2021/12/14 11:30:29;;;;;;;14.85;11.53;;;;;;;1.94;86.64;101034.99;1723590;82;21585;-71
2021/12/14 11:33:09;;;;;;;12.87;10.53;;;;;;;1.93;86.69;101038.59;1721113;82;20990;-62
2021/12/14 11:35:41;;;;;;;10.97;8.33;;;;;;;1.97;86.84;101041.83;1719096;82;21106;-62
2021/12/14 11:38:25;;;;;;;15.57;12.60;;;;;;;1.94;86.98;101041.56;1691568;84;21122;-65
2021/12/14 11:40:51;;;;;;;11.30;9.53;;;;;;;1.87;87.08;101039.06;1692008;84;21041;-66
2021/12/14 11:43:23;;;;;;;15.93;10.50;;;;;;;1.88;87.29;101042.86;1692230;83;21518;-62
2021/12/14 11:45:50;;;;;;;11.93;9.20;;;;;;;1.93;87.07;101041.22;1700813;83;21045;-61
2021/12/14 11:48:32;;;;;;;11.83;9.33;;;;;;;1.91;86.89;101051.84;1679858;85;21062;-64
2021/12/14 11:51:01;;;;;;;12.17;8.57;;;;;;;1.92;86.96;101047.42;1704471;84;21041;-61
2021/12/14 11:53:27;;;;;;;16.03;9.30;;;;;;;1.93;87.09;101041.22;1715863;82;21083;-63
2021/12/14 11:56:11;;;;;;;11.80;9.37;;;;;;;1.85;87.15;101044.42;1704489;82;21009;-63
2021/12/14 11:58:45;;;;;;;15.70;11.37;;;;;;;1.83;87.29;101050.73;1719373;82;21009;-70
2021/12/14 12:01:38;;;;;;;15.07;10.87;;;;;;;1.87;87.30;101049.58;1701764;82;21048;-63
2021/12/14 12:04:10;;;;;;;14.87;11.17;;;;;;;1.86;87.26;101046.08;1686555;84;21090;-60
2021/12/14 12:09:48;;;;;;;14.53;11.03;;;;;;;1.85;87.25;101050.17;1686519;84;21054;-62
2021/12/14 12:12:36;;;;;;;19.27;11.70;;;;;;;1.80;87.62;101039.15;1677548;84;22115;-64
2021/12/14 12:15:10;;;;;;;16.80;11.78;;;;;;;1.85;87.47;101051.00;1686743;84;21175;-63
2021/12/14 12:17:45;;;;;;;17.07;10.97;;;;;;;1.91;87.14;101045.76;1681123;84;22082;-61
2021/12/14 12:20:25;;;;;;;15.60;11.20;;;;;;;1.93;87.04;101047.80;1683896;84;21018;-62